createdAt,value
2023-09-27T00:02:06.873Z,10.18
2023-09-27T00:04:39.080Z,12.70
2023-09-27T00:07:11.367Z,11.32
2023-09-27T00:09:43.632Z,13.27
2023-09-27T00:12:16.916Z,12.43
2023-09-27T00:14:49.028Z,9.90
2023-09-27T00:17:21.590Z,12.40
2023-09-27T00:19:53.800Z,11.23
2023-09-27T00:22:26.050Z,13.30
2023-09-27T00:24:58.708Z,13.10
2023-09-27T00:27:30.986Z,14.25
2023-09-27T00:30:03.858Z,14.93
2023-09-27T00:32:36.738Z,13.07
2023-09-27T00:35:16.110Z,14.70
2023-09-27T00:37:49.301Z,18.50
2023-09-27T00:40:24.370Z,16.75
2023-09-27T00:42:56.527Z,25.65
2023-09-27T00:45:28.688Z,20.02
2023-09-27T00:48:00.995Z,19.23
2023-09-27T00:50:33.249Z,20.88
2023-09-27T00:53:05.669Z,17.67
2023-09-27T00:55:38.383Z,16.52
2023-09-27T00:58:11.645Z,15.60
2023-09-27T01:00:44.042Z,17.10
2023-09-27T01:03:16.627Z,15.45
2023-09-27T01:05:49.490Z,22.58
2023-09-27T01:08:22.620Z,11.45
2023-09-27T01:10:54.952Z,11.65
2023-09-27T01:13:27.402Z,12.32
2023-09-27T01:15:59.561Z,12.02
2023-09-27T01:18:31.744Z,12.77
2023-09-27T01:21:04.099Z,14.68
2023-09-27T01:23:40.177Z,14.48
2023-09-27T01:26:14.162Z,15.00
2023-09-27T01:28:47.833Z,10.85
2023-09-27T01:31:20.394Z,16.15
2023-09-27T01:33:52.759Z,17.42
2023-09-27T01:36:25.136Z,17.25
2023-09-27T01:38:57.715Z,18.55
2023-09-27T01:41:29.809Z,14.50
2023-09-27T01:44:02.020Z,21.25
2023-09-27T01:46:34.250Z,20.20
2023-09-27T01:49:06.527Z,15.98
2023-09-27T01:51:38.615Z,14.32
2023-09-27T01:54:10.736Z,15.73
2023-09-27T01:56:42.817Z,16.65
2023-09-27T01:59:15.379Z,21.92
2023-09-27T02:01:47.573Z,15.43
2023-09-27T02:04:19.701Z,15.27
2023-09-27T02:06:51.775Z,16.00
2023-09-27T02:09:23.867Z,16.58
2023-09-27T02:11:55.970Z,17.52
2023-09-27T02:14:28.279Z,14.18
2023-09-27T02:17:00.463Z,16.17
2023-09-27T02:19:32.589Z,17.40
2023-09-27T02:22:04.677Z,13.68
2023-09-27T02:24:38.018Z,15.52
2023-09-27T02:27:12.084Z,16.60
2023-09-27T02:29:44.448Z,15.95
2023-09-27T02:32:16.629Z,19.45
2023-09-27T02:34:48.773Z,15.90
2023-09-27T02:37:21.872Z,17.88
2023-09-27T02:39:54.118Z,17.55
2023-09-27T02:42:26.618Z,15.07
2023-09-27T02:44:58.880Z,16.95
2023-09-27T02:47:32.281Z,16.15
2023-09-27T02:50:11.427Z,15.27
2023-09-27T02:52:45.469Z,16.20
2023-09-27T02:55:18.303Z,20.15
2023-09-27T02:57:54.341Z,18.45
2023-09-27T03:00:28.040Z,16.35
2023-09-27T03:03:01.834Z,14.93
2023-09-27T03:05:40.143Z,18.52
2023-09-27T03:08:12.531Z,17.50
2023-09-27T03:10:44.705Z,25.67
2023-09-27T03:13:17.199Z,14.18
2023-09-27T03:15:59.943Z,17.00
2023-09-27T03:18:33.500Z,20.73
2023-09-27T03:21:06.821Z,16.60
2023-09-27T03:23:38.986Z,15.48
2023-09-27T03:26:14.132Z,17.17
2023-09-27T03:28:46.269Z,14.63
2023-09-27T03:31:19.164Z,16.10
2023-09-27T03:33:51.326Z,17.73
2023-09-27T03:36:23.484Z,14.90
2023-09-27T03:38:55.836Z,21.17
2023-09-27T03:41:27.993Z,20.73
2023-09-27T03:44:00.251Z,19.83
2023-09-27T03:46:32.589Z,22.92
2023-09-27T03:49:05.053Z,20.30
2023-09-27T03:51:37.200Z,21.15
2023-09-27T03:54:09.382Z,17.70
2023-09-27T03:56:41.526Z,21.20
2023-09-27T03:59:15.104Z,19.15
2023-09-27T04:01:47.724Z,21.02
2023-09-27T04:04:20.436Z,18.35
2023-09-27T04:06:53.065Z,24.60
2023-09-27T04:09:25.161Z,20.77
2023-09-27T04:11:57.300Z,21.35
2023-09-27T04:14:29.728Z,19.48
2023-09-27T04:17:03.029Z,22.23
2023-09-27T04:19:35.364Z,19.80
2023-09-27T04:22:07.496Z,18.98
2023-09-27T04:24:39.600Z,21.52
2023-09-27T04:27:11.908Z,19.60
2023-09-27T04:29:44.133Z,22.67
2023-09-27T04:32:16.378Z,20.58
2023-09-27T04:34:48.463Z,20.15
2023-09-27T04:37:21.061Z,23.88
2023-09-27T04:39:53.217Z,22.98
2023-09-27T04:42:25.315Z,24.90
2023-09-27T04:44:57.465Z,22.75
2023-09-27T04:47:29.777Z,18.38
2023-09-27T04:50:02.259Z,22.73
2023-09-27T04:52:34.474Z,21.65
2023-09-27T04:55:08.667Z,28.55
2023-09-27T04:57:41.913Z,28.83
2023-09-27T05:00:21.179Z,25.10
2023-09-27T05:02:53.750Z,29.70
2023-09-27T05:05:26.039Z,25.70
2023-09-27T05:07:58.361Z,20.75
2023-09-27T05:10:30.535Z,23.80
2023-09-27T05:13:02.635Z,27.15
2023-09-27T05:15:35.125Z,26.05
2023-09-27T05:18:07.461Z,28.02
2023-09-27T05:20:39.632Z,26.55
2023-09-27T05:23:13.385Z,29.60
2023-09-27T05:25:45.752Z,23.40
2023-09-27T05:28:17.889Z,23.10
2023-09-27T05:30:50.082Z,27.00
2023-09-27T05:33:22.415Z,27.55
2023-09-27T05:35:54.652Z,27.75
2023-09-27T05:38:26.959Z,30.77
2023-09-27T05:40:59.148Z,26.73
2023-09-27T05:43:31.407Z,25.33
2023-09-27T05:46:04.216Z,28.48
2023-09-27T05:48:36.351Z,27.85
2023-09-27T05:51:09.070Z,34.72
2023-09-27T05:53:41.202Z,34.63
2023-09-27T05:56:13.418Z,27.70
2023-09-27T05:58:45.572Z,32.05
2023-09-27T06:01:20.989Z,30.63
2023-09-27T06:03:53.249Z,28.35
2023-09-27T06:06:25.437Z,31.98
2023-09-27T06:08:57.648Z,29.05
2023-09-27T06:11:29.790Z,26.30
2023-09-27T06:14:02.167Z,30.20
2023-09-27T06:16:34.358Z,33.65
2023-09-27T06:19:07.380Z,27.98
2023-09-27T06:21:40.650Z,27.50
2023-09-27T06:24:12.746Z,33.72
2023-09-27T06:26:45.126Z,35.03
2023-09-27T06:29:17.831Z,38.03
2023-09-27T06:31:52.053Z,35.13
2023-09-27T06:34:24.224Z,30.58
2023-09-27T06:36:57.915Z,29.45
2023-09-27T06:39:30.219Z,31.25
2023-09-27T06:42:03.438Z,28.13
2023-09-27T06:44:35.796Z,33.03
2023-09-27T06:47:08.184Z,31.38
2023-09-27T06:49:40.369Z,32.30
2023-09-27T06:52:13.007Z,38.67
2023-09-27T06:54:46.728Z,34.08
2023-09-27T06:57:18.921Z,37.85
2023-09-27T06:59:51.131Z,40.58
2023-09-27T07:02:23.462Z,27.27
2023-09-27T07:04:55.625Z,34.25
2023-09-27T07:07:30.828Z,32.53
2023-09-27T07:10:02.942Z,30.83
2023-09-27T07:12:38.859Z,28.70
2023-09-27T07:15:15.703Z,30.00
2023-09-27T07:17:50.075Z,26.63
2023-09-27T07:20:29.344Z,32.60
2023-09-27T07:23:05.319Z,26.75
2023-09-27T07:25:39.362Z,30.15
2023-09-27T07:28:12.515Z,27.73
2023-09-27T07:30:44.882Z,42.63
2023-09-27T07:33:18.870Z,29.40
2023-09-27T07:35:53.452Z,26.85
2023-09-27T07:38:26.750Z,30.05
2023-09-27T07:40:58.990Z,30.73
2023-09-27T07:43:31.321Z,29.58
2023-09-27T07:46:06.722Z,24.75
2023-09-27T07:48:40.947Z,26.42
2023-09-27T07:51:20.772Z,27.17
2023-09-27T07:53:54.548Z,24.10
2023-09-27T07:56:27.784Z,23.40
2023-09-27T07:59:00.043Z,21.73
2023-09-27T08:01:32.438Z,23.77
2023-09-27T08:04:11.725Z,22.90
2023-09-27T08:06:46.679Z,24.80
2023-09-27T08:09:35.164Z,24.58
2023-09-27T08:12:11.180Z,21.00
2023-09-27T08:14:43.705Z,23.13
2023-09-27T08:17:15.840Z,23.00
2023-09-27T08:19:47.933Z,23.85
2023-09-27T08:22:20.622Z,18.65
2023-09-27T08:24:53.179Z,35.90
2023-09-27T08:27:26.523Z,25.25
2023-09-27T08:29:58.653Z,22.02
2023-09-27T08:32:30.830Z,19.92
2023-09-27T08:35:06.646Z,16.58
2023-09-27T08:37:38.847Z,21.95
2023-09-27T08:40:14.856Z,17.83
2023-09-27T08:42:52.320Z,15.18
2023-09-27T08:45:25.812Z,21.95
2023-09-27T08:47:58.706Z,15.80
2023-09-27T08:50:31.772Z,16.67
2023-09-27T08:53:04.686Z,22.10
2023-09-27T08:55:39.059Z,15.43
2023-09-27T08:58:14.314Z,17.38
2023-09-27T09:00:47.032Z,21.20
2023-09-27T09:03:20.204Z,17.75
2023-09-27T09:05:53.342Z,16.70
2023-09-27T09:08:37.361Z,19.40
2023-09-27T09:11:19.846Z,15.80
2023-09-27T09:14:05.508Z,18.08
2023-09-27T09:16:41.651Z,16.80
2023-09-27T09:22:09.802Z,18.88
2023-09-27T09:24:43.876Z,14.85
2023-09-27T09:27:18.530Z,15.30
2023-09-27T09:29:54.301Z,21.00
2023-09-27T09:32:29.536Z,23.92
2023-09-27T09:35:02.186Z,21.10
2023-09-27T09:37:36.468Z,16.98
2023-09-27T09:40:17.400Z,13.65
2023-09-27T09:42:50.681Z,23.38
2023-09-27T09:45:24.510Z,20.67
2023-09-27T09:47:57.847Z,15.88
2023-09-27T09:50:30.913Z,12.50
2023-09-27T09:53:03.478Z,12.65
2023-09-27T09:56:08.970Z,32.42
2023-09-27T09:58:37.352Z,22.92
2023-09-27T10:01:14.395Z,86.85
2023-09-27T10:03:49.664Z,93.55
2023-09-27T10:06:40.821Z,50.38
2023-09-27T10:09:17.326Z,16.45
2023-09-27T10:11:50.976Z,13.82
2023-09-27T10:14:24.183Z,14.73
2023-09-27T10:16:56.493Z,13.95
2023-09-27T10:19:30.390Z,14.98
2023-09-27T10:22:15.639Z,11.68
2023-09-27T10:24:47.967Z,10.23
2023-09-27T10:27:20.369Z,8.38
2023-09-27T10:29:59.571Z,11.15
2023-09-27T10:32:32.477Z,13.55
2023-09-27T10:35:23.348Z,13.02
2023-09-27T10:38:00.754Z,6.38
2023-09-27T10:40:43.647Z,6.85
2023-09-27T10:43:37.728Z,11.57
2023-09-27T10:46:09.934Z,4.22
2023-09-27T10:48:43.873Z,6.00
2023-09-27T10:51:16.216Z,6.00
2023-09-27T10:53:50.342Z,5.60
2023-09-27T10:56:22.732Z,8.27
2023-09-27T10:58:55.378Z,5.72
2023-09-27T11:01:27.622Z,5.90
2023-09-27T11:04:07.693Z,5.90
2023-09-27T11:06:40.060Z,4.50
2023-09-27T11:09:13.846Z,7.68
2023-09-27T11:11:47.719Z,5.97
2023-09-27T11:14:37.018Z,9.32
2023-09-27T11:17:24.035Z,8.57
2023-09-27T11:19:56.483Z,7.25
2023-09-27T11:22:31.961Z,11.85
2023-09-27T11:25:04.572Z,5.28
2023-09-27T11:27:44.509Z,14.88
2023-09-27T11:30:17.050Z,9.10
2023-09-27T11:32:52.051Z,9.52
2023-09-27T11:35:27.386Z,9.25
2023-09-27T11:38:14.256Z,6.93
2023-09-27T11:40:47.809Z,5.57
2023-09-27T11:43:20.399Z,4.43
2023-09-27T11:45:53.631Z,4.38
2023-09-27T11:48:36.254Z,6.63
2023-09-27T11:51:09.470Z,7.63
2023-09-27T11:53:41.830Z,6.38
2023-09-27T11:56:14.308Z,4.82
2023-09-27T11:58:46.404Z,7.57
2023-09-27T12:01:18.576Z,10.00
2023-09-27T12:03:52.672Z,5.90
2023-09-27T12:06:27.170Z,9.50
2023-09-27T12:09:02.247Z,16.40
2023-09-27T12:11:34.742Z,58.42
2023-09-27T12:14:06.867Z,38.20
2023-09-27T12:16:39.039Z,14.32
2023-09-27T12:19:11.166Z,16.15
2023-09-27T12:21:43.773Z,10.02
2023-09-27T12:24:16.018Z,12.60
2023-09-27T12:26:48.228Z,8.25
2023-09-27T12:29:20.399Z,13.85
2023-09-27T12:31:52.801Z,9.52
2023-09-27T12:34:24.990Z,9.07
2023-09-27T12:36:57.544Z,11.52
2023-09-27T12:39:29.701Z,10.15
2023-09-27T12:42:02.969Z,19.27
2023-09-27T12:44:35.135Z,8.35
2023-09-27T12:47:07.826Z,11.82
2023-09-27T12:49:41.075Z,11.25
2023-09-27T12:52:14.964Z,8.93
2023-09-27T12:54:48.690Z,11.98
2023-09-27T12:57:20.829Z,11.77
2023-09-27T12:59:52.944Z,9.38
2023-09-27T13:02:28.356Z,15.70
2023-09-27T13:05:00.697Z,14.20
2023-09-27T13:07:32.841Z,13.65
2023-09-27T13:10:06.475Z,11.60
2023-09-27T13:12:41.420Z,7.38
2023-09-27T13:15:15.536Z,10.30
2023-09-27T13:17:47.779Z,9.48
2023-09-27T13:20:20.262Z,10.93
2023-09-27T13:22:52.533Z,13.60
2023-09-27T13:25:27.460Z,13.55
2023-09-27T13:27:59.813Z,11.00
2023-09-27T13:30:36.498Z,10.15
2023-09-27T13:33:09.240Z,10.15
2023-09-27T13:35:41.574Z,6.35
2023-09-27T13:38:14.074Z,10.02
2023-09-27T13:40:46.320Z,6.70
2023-09-27T13:43:18.568Z,23.30
2023-09-27T13:45:50.842Z,8.60
2023-09-27T13:48:24.386Z,11.40
2023-09-27T13:50:57.582Z,9.60
2023-09-27T13:53:29.720Z,6.00
2023-09-27T13:56:02.915Z,5.75
2023-09-27T13:58:35.136Z,10.68
2023-09-27T14:01:07.464Z,10.55
2023-09-27T14:03:39.990Z,9.60
2023-09-27T14:06:12.272Z,5.38
2023-09-27T14:08:44.646Z,7.55
2023-09-27T14:11:18.177Z,7.38
2023-09-27T14:13:50.367Z,13.48
2023-09-27T14:16:22.645Z,7.57
2023-09-27T14:18:55.182Z,8.50
2023-09-27T14:21:27.631Z,6.25
2023-09-27T14:23:59.853Z,8.23
2023-09-27T14:26:32.051Z,10.88
2023-09-27T14:29:04.981Z,15.07
2023-09-27T14:31:37.175Z,6.95
2023-09-27T14:34:09.514Z,10.60
2023-09-27T14:36:42.071Z,12.30
2023-09-27T14:39:15.982Z,12.10
2023-09-27T14:41:48.764Z,8.77
2023-09-27T14:44:21.521Z,7.88
2023-09-27T14:46:53.712Z,7.05
2023-09-27T14:49:26.166Z,9.20
2023-09-27T14:51:58.405Z,7.65
2023-09-27T14:54:30.516Z,6.97
2023-09-27T14:57:02.693Z,8.18
2023-09-27T14:59:34.887Z,8.23
2023-09-27T15:02:07.255Z,8.60
2023-09-27T15:04:39.590Z,6.32
2023-09-27T15:07:12.050Z,5.80
2023-09-27T15:09:44.400Z,9.35
2023-09-27T15:12:16.531Z,12.77
2023-09-27T15:14:48.684Z,11.98
2023-09-27T15:17:20.864Z,5.03
2023-09-27T15:19:53.073Z,5.20
2023-09-27T15:22:25.260Z,9.63
2023-09-27T15:24:57.515Z,6.63
2023-09-27T15:27:29.692Z,8.40
2023-09-27T15:30:02.120Z,5.82
2023-09-27T15:32:34.291Z,6.25
2023-09-27T15:35:08.488Z,8.60
2023-09-27T15:37:55.184Z,8.82
2023-09-27T15:40:31.749Z,8.70
2023-09-27T15:43:04.050Z,8.38
2023-09-27T15:45:36.315Z,10.80
2023-09-27T15:48:09.125Z,8.85
2023-09-27T15:50:41.531Z,15.95
2023-09-27T15:53:13.709Z,7.15
2023-09-27T15:55:45.867Z,8.05
2023-09-27T15:58:17.992Z,8.38
2023-09-27T16:00:50.434Z,7.22
2023-09-27T16:03:22.980Z,10.00
2023-09-27T16:05:55.674Z,7.25
2023-09-27T16:08:29.268Z,7.45
2023-09-27T16:11:01.652Z,13.77
2023-09-27T16:13:33.892Z,23.42
2023-09-27T16:16:06.236Z,15.63
2023-09-27T16:18:38.411Z,15.20
2023-09-27T16:21:24.294Z,10.57
2023-09-27T16:23:58.519Z,9.70
2023-09-27T16:26:31.555Z,11.25
2023-09-27T16:29:04.689Z,8.48
2023-09-27T16:31:38.345Z,11.98
2023-09-27T16:34:12.639Z,10.95
2023-09-27T16:36:45.988Z,10.85
2023-09-27T16:39:18.566Z,7.30
2023-09-27T16:41:51.195Z,9.90
2023-09-27T16:44:24.077Z,11.25
2023-09-27T16:46:56.259Z,11.38
2023-09-27T16:49:28.458Z,12.35
2023-09-27T16:52:01.058Z,16.33
2023-09-27T16:54:33.486Z,13.73
2023-09-27T16:57:05.692Z,12.25
2023-09-27T16:59:38.313Z,15.32
2023-09-27T17:02:10.657Z,18.55
2023-09-27T17:04:43.067Z,14.77
2023-09-27T17:07:15.371Z,16.42
2023-09-27T17:09:47.766Z,16.30
2023-09-27T17:12:20.908Z,15.20
2023-09-27T17:14:53.109Z,15.55
2023-09-27T17:17:25.570Z,18.23
2023-09-27T17:19:57.845Z,20.95
2023-09-27T17:22:30.531Z,17.08
2023-09-27T17:25:02.860Z,13.27
2023-09-27T17:27:35.035Z,18.27
2023-09-27T17:30:08.192Z,21.65
2023-09-27T17:32:40.811Z,18.30
2023-09-27T17:35:13.336Z,19.13
2023-09-27T17:37:45.736Z,23.00
2023-09-27T17:40:17.966Z,19.73
2023-09-27T17:42:51.772Z,20.25
2023-09-27T17:45:24.137Z,29.20
2023-09-27T17:47:56.374Z,19.63
2023-09-27T17:50:30.143Z,16.10
2023-09-27T17:53:02.430Z,18.45
2023-09-27T17:55:34.789Z,21.63
2023-09-27T17:58:07.257Z,18.48
2023-09-27T18:00:39.385Z,18.95
2023-09-27T18:03:11.568Z,15.68
2023-09-27T18:05:43.858Z,16.67
2023-09-27T18:08:16.069Z,13.90
2023-09-27T18:10:51.584Z,12.80
2023-09-27T18:13:23.894Z,20.15
2023-09-27T18:15:56.195Z,27.45
2023-09-27T18:18:28.413Z,22.58
2023-09-27T18:21:00.511Z,22.45
2023-09-27T18:23:32.691Z,45.92
2023-09-27T18:26:05.008Z,42.83
2023-09-27T18:28:37.840Z,29.45
2023-09-27T18:31:10.699Z,19.90
2023-09-27T18:33:43.121Z,18.10
2023-09-27T18:36:15.322Z,13.00
2023-09-27T18:38:47.519Z,14.07
2023-09-27T18:41:19.847Z,13.77
2023-09-27T18:43:52.272Z,14.68
2023-09-27T18:46:24.940Z,13.63
2023-09-27T18:48:57.183Z,12.02
2023-09-27T18:51:29.354Z,13.93
2023-09-27T18:54:01.540Z,19.42
2023-09-27T18:56:33.733Z,14.70
2023-09-27T18:59:06.379Z,16.02
2023-09-27T19:01:38.724Z,12.52
2023-09-27T19:04:11.006Z,11.77
2023-09-27T19:06:43.321Z,10.48
2023-09-27T19:09:17.479Z,9.75
2023-09-27T19:11:49.635Z,13.02
2023-09-27T19:14:21.930Z,10.93
2023-09-27T19:16:54.121Z,9.63
2023-09-27T19:19:26.788Z,13.15
2023-09-27T19:21:58.970Z,11.40
2023-09-27T19:24:32.862Z,11.95
2023-09-27T19:27:05.614Z,11.65
2023-09-27T19:29:37.738Z,14.13
2023-09-27T19:32:09.882Z,8.50
2023-09-27T19:34:42.028Z,11.65
2023-09-27T19:37:14.209Z,10.27
2023-09-27T19:39:46.865Z,12.48
2023-09-27T19:42:19.454Z,11.30
2023-09-27T19:44:51.611Z,14.30
2023-09-27T19:47:23.750Z,16.25
2023-09-27T19:49:56.107Z,63.70
2023-09-27T19:52:28.348Z,24.60
2023-09-27T19:55:00.530Z,24.15
2023-09-27T19:57:33.262Z,15.90
2023-09-27T20:00:18.847Z,12.75
2023-09-27T20:02:53.715Z,16.08
2023-09-27T20:05:28.094Z,14.93
2023-09-27T20:08:00.414Z,11.02
2023-09-27T20:10:32.638Z,18.20
2023-09-27T20:13:05.064Z,18.60
2023-09-27T20:15:37.274Z,12.95
2023-09-27T20:18:09.462Z,8.45
2023-09-27T20:20:41.769Z,9.73
2023-09-27T20:23:14.030Z,15.70
2023-09-27T20:25:46.307Z,9.40
2023-09-27T20:28:18.471Z,12.20
2023-09-27T20:30:50.973Z,13.98
2023-09-27T20:33:23.202Z,12.57
2023-09-27T20:35:55.469Z,9.20
2023-09-27T20:38:29.405Z,12.48
2023-09-27T20:41:01.592Z,13.45
2023-09-27T20:43:33.778Z,12.85
2023-09-27T20:46:14.980Z,29.65
2023-09-27T20:48:47.311Z,20.60
2023-09-27T20:51:19.498Z,13.60
2023-09-27T20:53:52.144Z,18.35
2023-09-27T20:56:24.593Z,19.00
2023-09-27T20:58:56.913Z,20.05
2023-09-27T21:01:37.217Z,17.23
2023-09-27T21:04:11.589Z,20.70
2023-09-27T21:06:44.577Z,18.10
2023-09-27T21:09:16.848Z,15.63
2023-09-27T21:11:49.023Z,19.10
2023-09-27T21:14:21.395Z,16.75
2023-09-27T21:16:53.591Z,16.10
2023-09-27T21:19:25.851Z,16.35
2023-09-27T21:21:58.442Z,14.35
2023-09-27T21:24:30.686Z,15.82
2023-09-27T21:27:03.293Z,14.57
2023-09-27T21:29:36.366Z,17.27
2023-09-27T21:32:08.557Z,17.58
2023-09-27T21:34:40.988Z,17.48
2023-09-27T21:37:15.925Z,17.75
2023-09-27T21:39:48.013Z,19.05
2023-09-27T21:42:20.473Z,15.45
2023-09-27T21:44:53.413Z,22.05
2023-09-27T21:47:25.975Z,19.23
2023-09-27T21:49:58.335Z,17.20
2023-09-27T21:52:37.041Z,27.30
2023-09-27T21:55:10.150Z,17.77
2023-09-27T21:57:43.365Z,20.15
2023-09-27T22:00:21.453Z,16.85
2023-09-27T22:02:54.146Z,20.30
2023-09-27T22:05:34.066Z,14.70
2023-09-27T22:08:06.754Z,20.92
2023-09-27T22:10:44.266Z,18.05
2023-09-27T22:13:23.322Z,16.75
2023-09-27T22:16:09.537Z,25.70
2023-09-27T22:18:51.821Z,16.10
2023-09-27T22:21:32.489Z,23.27
2023-09-27T22:24:16.620Z,16.13
2023-09-27T22:26:52.395Z,19.15
2023-09-27T22:29:24.835Z,20.25
2023-09-27T22:31:59.071Z,18.85
2023-09-27T22:34:38.853Z,20.15
2023-09-27T22:37:11.203Z,20.35
2023-09-27T22:39:44.855Z,17.65
2023-09-27T22:42:18.465Z,19.00
2023-09-27T22:44:50.630Z,23.15
2023-09-27T22:47:22.714Z,27.42
2023-09-27T22:49:54.907Z,23.70
2023-09-27T22:52:27.108Z,22.60
2023-09-27T22:54:59.925Z,32.85
2023-09-27T22:57:32.247Z,29.08
2023-09-27T23:00:10.877Z,27.83
2023-09-27T23:02:49.678Z,24.48
2023-09-27T23:05:40.726Z,21.00
2023-09-27T23:08:14.276Z,21.48
2023-09-27T23:10:49.235Z,25.73
2023-09-27T23:13:36.063Z,24.10
2023-09-27T23:16:26.305Z,21.58
2023-09-27T23:19:01.985Z,27.50
2023-09-27T23:21:34.381Z,24.20
2023-09-27T23:24:24.667Z,28.98
2023-09-27T23:29:31.880Z,26.02
2023-09-27T23:32:24.100Z,30.20
2023-09-27T23:35:00.447Z,26.67
2023-09-27T23:37:35.865Z,21.45
2023-09-27T23:40:15.816Z,24.35
2023-09-27T23:42:48.503Z,38.13
2023-09-27T23:45:21.412Z,30.90
2023-09-27T23:47:57.720Z,23.23
2023-09-27T23:50:31.713Z,22.90
2023-09-27T23:53:06.909Z,26.13
2023-09-27T23:55:42.682Z,23.85
2023-09-27T23:58:14.933Z,31.35
